createdAt,value
2022-07-31T00:02:13.026Z,5.60
2022-07-31T00:04:34.888Z,5.30
2022-07-31T00:06:56.390Z,5.70
2022-07-31T00:09:52.541Z,5.43
2022-07-31T00:11:59.406Z,5.67
2022-07-31T00:14:20.950Z,5.73
2022-07-31T00:16:42.456Z,5.70
2022-07-31T00:19:04.022Z,5.70
2022-07-31T00:21:25.469Z,5.60
2022-07-31T00:23:46.957Z,5.20
2022-07-31T00:26:08.663Z,5.20
2022-07-31T00:28:30.140Z,5.00
2022-07-31T00:30:51.688Z,5.40
2022-07-31T00:33:13.150Z,5.43
2022-07-31T00:35:34.589Z,5.73
2022-07-31T00:38:24.715Z,5.30
2022-07-31T00:40:46.228Z,6.00
2022-07-31T00:43:07.744Z,5.90
2022-07-31T00:45:31.705Z,6.23
2022-07-31T00:47:55.959Z,5.00
2022-07-31T00:50:17.518Z,5.77
2022-07-31T00:52:39.074Z,6.13
2022-07-31T00:55:00.576Z,6.37
2022-07-31T00:57:22.162Z,5.90
2022-07-31T00:59:43.921Z,6.23
2022-07-31T01:02:05.447Z,7.30
2022-07-31T01:04:27.281Z,7.17
2022-07-31T01:06:48.911Z,6.27
2022-07-31T01:09:10.566Z,5.77
2022-07-31T01:12:02.766Z,5.93
2022-07-31T01:14:27.829Z,5.60
2022-07-31T01:16:53.296Z,5.70
2022-07-31T01:19:43.133Z,6.33
2022-07-31T01:22:39.777Z,6.47
2022-07-31T01:25:20.843Z,6.03
2022-07-31T01:28:06.551Z,5.83
2022-07-31T01:30:35.387Z,7.10
2022-07-31T01:33:00.979Z,6.73
2022-07-31T01:35:33.069Z,7.67
2022-07-31T01:37:58.603Z,6.63
2022-07-31T01:40:28.014Z,6.70
2022-07-31T01:43:02.982Z,7.30
2022-07-31T01:45:26.517Z,6.77
2022-07-31T01:47:49.601Z,6.77
2022-07-31T01:50:42.195Z,6.70
2022-07-31T01:52:57.455Z,5.90
2022-07-31T01:55:19.675Z,6.37
2022-07-31T01:57:42.617Z,7.00
2022-07-31T02:00:33.627Z,7.33
2022-07-31T02:02:51.238Z,6.90
2022-07-31T02:05:18.319Z,6.63
2022-07-31T02:07:45.097Z,7.00
2022-07-31T02:10:10.027Z,6.47
2022-07-31T02:12:34.079Z,6.10
2022-07-31T02:14:56.867Z,6.23
2022-07-31T02:17:22.608Z,6.93
2022-07-31T02:20:00.297Z,7.40
2022-07-31T02:22:22.089Z,7.00
2022-07-31T02:24:46.902Z,7.40
2022-07-31T02:27:57.578Z,7.73
2022-07-31T02:29:56.598Z,7.40
2022-07-31T02:32:18.216Z,7.20
2022-07-31T02:34:40.574Z,8.03
2022-07-31T02:37:04.212Z,6.87
2022-07-31T02:39:30.435Z,7.60
2022-07-31T02:41:54.159Z,7.57
2022-07-31T02:44:15.882Z,7.37
2022-07-31T02:46:48.994Z,8.93
2022-07-31T02:49:14.034Z,8.07
2022-07-31T02:51:42.638Z,7.17
2022-07-31T02:54:04.601Z,6.93
2022-07-31T02:56:26.183Z,7.03
2022-07-31T02:58:49.579Z,8.10
2022-07-31T03:01:11.113Z,7.60
2022-07-31T03:03:32.718Z,7.30
2022-07-31T03:05:54.259Z,7.50
2022-07-31T03:08:15.727Z,7.20
2022-07-31T03:10:37.211Z,7.70
2022-07-31T03:13:00.738Z,6.40
2022-07-31T03:15:25.542Z,6.80
2022-07-31T03:17:48.107Z,7.33
2022-07-31T03:20:11.010Z,8.17
2022-07-31T03:22:33.414Z,7.27
2022-07-31T03:24:56.135Z,8.23
2022-07-31T03:27:19.307Z,8.40
2022-07-31T03:29:43.195Z,9.27
2022-07-31T03:32:06.513Z,8.43
2022-07-31T03:34:28.286Z,8.27
2022-07-31T03:36:49.825Z,7.97
2022-07-31T03:39:11.328Z,8.30
2022-07-31T03:41:33.873Z,8.13
2022-07-31T03:43:55.476Z,8.33
2022-07-31T03:46:19.813Z,9.03
2022-07-31T03:48:41.368Z,8.65
2022-07-31T03:51:03.100Z,9.00
2022-07-31T03:53:25.293Z,8.90
2022-07-31T03:55:46.930Z,9.10
2022-07-31T03:58:08.974Z,8.43
2022-07-31T04:00:31.242Z,7.90
2022-07-31T04:02:57.710Z,8.57
2022-07-31T04:05:19.251Z,8.93
2022-07-31T04:07:40.756Z,8.88
2022-07-31T04:10:02.887Z,8.50
2022-07-31T04:12:24.427Z,9.10
2022-07-31T04:14:46.375Z,9.30
2022-07-31T04:17:07.926Z,9.30
2022-07-31T04:19:32.601Z,9.80
2022-07-31T04:21:54.092Z,8.75
2022-07-31T04:24:17.796Z,8.85
2022-07-31T04:26:39.341Z,8.68
2022-07-31T04:29:01.114Z,8.48
2022-07-31T04:31:22.618Z,8.80
2022-07-31T04:33:47.296Z,8.43
2022-07-31T04:36:29.197Z,9.13
2022-07-31T04:38:52.165Z,8.63
2022-07-31T04:41:13.611Z,9.15
2022-07-31T04:43:35.078Z,9.70
2022-07-31T04:45:56.535Z,10.23
2022-07-31T04:48:17.992Z,9.70
2022-07-31T04:50:39.498Z,10.18
2022-07-31T04:53:00.984Z,10.05
2022-07-31T04:55:22.849Z,9.82
2022-07-31T04:57:44.332Z,8.45
2022-07-31T05:00:06.832Z,9.05
2022-07-31T05:02:28.688Z,8.38
2022-07-31T05:04:52.605Z,8.95
2022-07-31T05:07:18.272Z,9.65
2022-07-31T05:09:39.782Z,8.95
2022-07-31T05:12:02.130Z,9.40
2022-07-31T05:14:23.866Z,9.10
2022-07-31T05:16:45.743Z,8.95
2022-07-31T05:19:14.312Z,8.23
2022-07-31T05:21:46.019Z,8.07
2022-07-31T05:24:15.007Z,8.55
2022-07-31T05:26:39.108Z,8.27
2022-07-31T05:29:00.960Z,8.20
2022-07-31T05:31:22.928Z,8.32
2022-07-31T05:33:46.542Z,7.80
2022-07-31T05:36:08.182Z,8.57
2022-07-31T05:38:29.837Z,8.40
2022-07-31T05:40:51.281Z,8.13
2022-07-31T05:43:12.774Z,7.70
2022-07-31T05:45:34.330Z,7.50
2022-07-31T05:47:55.790Z,8.38
2022-07-31T05:50:17.870Z,8.68
2022-07-31T05:52:39.342Z,9.07
2022-07-31T05:55:00.786Z,8.93
2022-07-31T05:57:33.417Z,8.90
2022-07-31T05:59:55.703Z,8.40
2022-07-31T06:02:17.175Z,8.10
2022-07-31T06:04:38.625Z,7.80
2022-07-31T06:07:00.159Z,8.18
2022-07-31T06:09:21.638Z,8.38
2022-07-31T06:11:43.168Z,8.13
2022-07-31T06:14:04.625Z,8.40
2022-07-31T06:16:26.157Z,7.75
2022-07-31T06:18:47.611Z,8.05
2022-07-31T06:21:09.737Z,7.63
2022-07-31T06:23:32.099Z,8.00
2022-07-31T06:25:54.068Z,7.97
2022-07-31T06:28:15.807Z,7.43
2022-07-31T06:30:39.654Z,7.68
2022-07-31T06:33:01.106Z,8.13
2022-07-31T06:35:30.190Z,7.57
2022-07-31T06:37:51.665Z,7.55
2022-07-31T06:40:13.540Z,7.50
2022-07-31T06:42:34.998Z,7.20
2022-07-31T06:44:56.460Z,7.03
2022-07-31T06:47:19.547Z,7.38
2022-07-31T06:49:41.172Z,6.80
2022-07-31T06:52:04.901Z,6.88
2022-07-31T06:54:27.292Z,6.30
2022-07-31T06:56:49.360Z,6.80
2022-07-31T06:59:11.273Z,6.53
2022-07-31T07:01:33.546Z,6.93
2022-07-31T07:03:55.705Z,5.80
2022-07-31T07:06:17.753Z,6.30
2022-07-31T07:08:39.219Z,6.53
2022-07-31T07:11:00.724Z,6.53
2022-07-31T07:13:23.592Z,5.90
2022-07-31T07:15:45.260Z,5.45
2022-07-31T07:18:07.081Z,5.25
2022-07-31T07:20:28.604Z,5.32
2022-07-31T07:22:50.050Z,5.65
2022-07-31T07:25:12.657Z,5.13
2022-07-31T07:27:34.204Z,5.45
2022-07-31T07:29:56.179Z,5.45
2022-07-31T07:32:17.735Z,4.57
2022-07-31T07:34:39.448Z,5.03
2022-07-31T07:37:01.000Z,4.85
2022-07-31T07:39:23.016Z,4.75
2022-07-31T07:41:45.310Z,5.05
2022-07-31T07:44:07.376Z,5.05
2022-07-31T07:46:28.914Z,4.55
2022-07-31T07:48:51.095Z,4.35
2022-07-31T07:51:12.760Z,4.15
2022-07-31T07:53:35.003Z,4.40
2022-07-31T07:55:56.581Z,4.28
2022-07-31T07:58:18.122Z,4.18
2022-07-31T08:00:40.754Z,4.50
2022-07-31T08:03:02.804Z,3.97
2022-07-31T08:05:43.807Z,3.80
2022-07-31T08:08:05.295Z,3.95
2022-07-31T08:10:26.841Z,3.70
2022-07-31T08:12:48.311Z,3.33
2022-07-31T08:15:09.875Z,3.58
2022-07-31T08:17:31.350Z,3.58
2022-07-31T08:19:52.834Z,3.45
2022-07-31T08:22:14.373Z,3.92
2022-07-31T08:24:35.907Z,3.70
2022-07-31T08:27:16.238Z,3.50
2022-07-31T08:29:37.690Z,3.50
2022-07-31T08:31:59.492Z,3.55
2022-07-31T08:34:30.920Z,3.00
2022-07-31T08:36:53.556Z,3.28
2022-07-31T08:39:17.613Z,3.20
2022-07-31T08:41:42.929Z,3.58
2022-07-31T08:44:07.977Z,3.50
2022-07-31T08:46:31.762Z,2.88
2022-07-31T08:48:57.013Z,3.00
2022-07-31T08:51:18.979Z,2.28
2022-07-31T08:53:43.013Z,2.50
2022-07-31T08:56:06.112Z,2.10
2022-07-31T08:58:27.818Z,2.30
2022-07-31T09:00:49.428Z,2.53
2022-07-31T09:03:11.207Z,2.40
2022-07-31T09:05:42.424Z,2.50
2022-07-31T09:08:08.399Z,2.50
2022-07-31T09:10:36.139Z,2.50
2022-07-31T09:12:57.640Z,2.80
2022-07-31T09:15:24.777Z,2.30
2022-07-31T09:17:53.987Z,2.40
2022-07-31T09:20:22.293Z,2.80
2022-07-31T09:22:43.777Z,2.70
2022-07-31T09:25:12.199Z,2.67
2022-07-31T09:27:33.862Z,2.80
2022-07-31T09:29:56.434Z,2.58
2022-07-31T09:32:19.983Z,2.65
2022-07-31T09:34:42.685Z,2.85
2022-07-31T09:37:10.697Z,3.65
2022-07-31T09:39:32.261Z,2.80
2022-07-31T09:42:01.970Z,2.67
2022-07-31T09:44:43.474Z,2.85
2022-07-31T09:47:05.487Z,2.85
2022-07-31T09:49:31.897Z,2.65
2022-07-31T09:51:53.460Z,2.35
2022-07-31T09:54:26.102Z,2.80
2022-07-31T09:56:49.788Z,2.63
2022-07-31T09:59:11.609Z,2.80
2022-07-31T10:01:36.396Z,2.97
2022-07-31T10:04:01.469Z,2.97
2022-07-31T10:06:25.425Z,2.83
2022-07-31T10:08:49.403Z,2.83
2022-07-31T10:11:16.571Z,2.50
2022-07-31T10:13:44.177Z,2.58
2022-07-31T10:16:07.128Z,2.67
2022-07-31T10:18:35.612Z,2.85
2022-07-31T10:21:00.015Z,2.80
2022-07-31T10:23:27.182Z,2.50
2022-07-31T10:25:53.832Z,2.35
2022-07-31T10:28:16.938Z,2.30
2022-07-31T10:30:39.100Z,2.38
2022-07-31T10:33:03.480Z,2.20
2022-07-31T10:35:55.678Z,2.42
2022-07-31T10:39:02.393Z,2.35
2022-07-31T10:41:37.983Z,2.40
2022-07-31T10:44:03.499Z,2.25
2022-07-31T10:46:32.662Z,2.45
2022-07-31T10:48:54.642Z,2.25
2022-07-31T10:51:16.168Z,2.30
2022-07-31T10:53:51.061Z,2.22
2022-07-31T10:56:16.881Z,2.42
2022-07-31T10:58:52.583Z,2.45
2022-07-31T11:01:17.560Z,2.45
2022-07-31T11:03:46.783Z,2.50
2022-07-31T11:06:10.632Z,2.40
2022-07-31T11:08:54.845Z,2.40
2022-07-31T11:11:16.322Z,2.20
2022-07-31T11:13:56.695Z,2.80
2022-07-31T11:16:19.591Z,2.28
2022-07-31T11:18:41.097Z,2.58
2022-07-31T11:21:17.838Z,2.28
2022-07-31T11:23:55.903Z,2.22
2022-07-31T11:26:33.562Z,2.55
2022-07-31T11:30:00.381Z,3.00
2022-07-31T11:31:44.918Z,2.70
2022-07-31T11:34:06.421Z,2.25
2022-07-31T11:36:29.854Z,2.45
2022-07-31T11:38:54.039Z,2.38
2022-07-31T11:41:16.305Z,2.22
2022-07-31T11:43:42.839Z,2.50
2022-07-31T11:46:05.333Z,2.45
2022-07-31T11:48:35.999Z,2.50
2022-07-31T11:51:01.356Z,2.47
2022-07-31T11:53:23.018Z,2.28
2022-07-31T11:55:51.776Z,2.70
2022-07-31T11:58:15.505Z,2.70
2022-07-31T12:00:37.055Z,2.35
2022-07-31T12:02:58.744Z,2.20
2022-07-31T12:05:20.338Z,2.42
2022-07-31T12:08:00.027Z,2.30
2022-07-31T12:10:23.375Z,2.38
2022-07-31T12:12:44.866Z,2.63
2022-07-31T12:15:18.571Z,2.33
2022-07-31T12:17:40.185Z,2.42
2022-07-31T12:20:09.639Z,2.05
2022-07-31T12:22:31.117Z,2.00
2022-07-31T12:25:00.889Z,1.98
2022-07-31T12:27:22.422Z,2.50
2022-07-31T12:29:44.724Z,2.38
2022-07-31T12:32:07.328Z,2.20
2022-07-31T12:34:38.359Z,2.20
2022-07-31T12:37:08.851Z,2.20
2022-07-31T12:39:50.795Z,2.22
2022-07-31T12:42:35.292Z,2.00
2022-07-31T12:45:17.915Z,2.13
2022-07-31T12:47:40.950Z,2.53
2022-07-31T12:50:03.442Z,2.10
2022-07-31T12:52:28.056Z,2.65
2022-07-31T12:54:50.272Z,2.40
2022-07-31T12:57:12.075Z,2.08
2022-07-31T12:59:33.650Z,2.33
2022-07-31T13:01:55.230Z,2.47
2022-07-31T13:04:19.283Z,2.03
2022-07-31T13:06:41.210Z,2.40
2022-07-31T13:09:03.141Z,2.42
2022-07-31T13:11:30.463Z,2.30
2022-07-31T13:14:08.537Z,2.45
2022-07-31T13:16:30.361Z,2.20
2022-07-31T13:18:51.878Z,2.50
2022-07-31T13:21:13.382Z,2.10
2022-07-31T13:23:34.930Z,1.88
2022-07-31T13:25:57.258Z,1.92
2022-07-31T13:28:18.727Z,1.98
2022-07-31T13:30:40.215Z,2.10
2022-07-31T13:33:01.724Z,2.33
2022-07-31T13:35:28.530Z,2.10
2022-07-31T13:37:50.435Z,1.95
2022-07-31T13:40:11.988Z,1.70
2022-07-31T13:42:33.495Z,2.33
2022-07-31T13:44:59.589Z,2.08
2022-07-31T13:47:21.245Z,2.25
2022-07-31T13:49:42.902Z,1.90
2022-07-31T13:52:05.053Z,2.08
2022-07-31T13:54:30.147Z,1.90
2022-07-31T13:56:51.746Z,1.92
2022-07-31T13:59:13.923Z,1.85
2022-07-31T14:02:02.244Z,2.30
2022-07-31T14:04:23.577Z,1.95
2022-07-31T14:06:45.648Z,2.30
2022-07-31T14:09:07.802Z,2.00
2022-07-31T14:11:29.287Z,1.98
2022-07-31T14:13:50.841Z,2.20
2022-07-31T14:16:12.342Z,2.08
2022-07-31T14:18:33.899Z,2.28
2022-07-31T14:20:55.402Z,2.00
2022-07-31T14:23:16.981Z,2.40
2022-07-31T14:25:40.307Z,2.35
2022-07-31T14:28:01.803Z,2.00
2022-07-31T14:30:24.495Z,2.00
2022-07-31T14:32:48.420Z,2.05
2022-07-31T14:35:10.161Z,1.90
2022-07-31T14:37:31.697Z,1.73
2022-07-31T14:39:53.205Z,2.35
2022-07-31T14:42:14.996Z,2.20
2022-07-31T14:44:44.593Z,2.15
2022-07-31T14:47:06.444Z,2.10
2022-07-31T14:50:06.691Z,2.05
2022-07-31T14:52:09.741Z,2.10
2022-07-31T14:54:31.317Z,1.95
2022-07-31T14:57:01.248Z,1.80
2022-07-31T14:59:22.981Z,1.75
2022-07-31T15:01:44.661Z,1.88
2022-07-31T15:04:06.685Z,1.80
2022-07-31T15:06:39.985Z,2.03
2022-07-31T15:09:09.723Z,1.92
2022-07-31T15:11:58.276Z,2.30
2022-07-31T15:14:12.823Z,1.90
2022-07-31T15:16:34.473Z,2.33
2022-07-31T15:18:56.517Z,1.80
2022-07-31T15:21:17.996Z,2.15
2022-07-31T15:23:39.501Z,2.00
2022-07-31T15:26:00.974Z,2.10
2022-07-31T15:28:22.567Z,2.10
2022-07-31T15:30:44.062Z,1.92
2022-07-31T15:33:05.552Z,1.77
2022-07-31T15:35:27.171Z,1.90
2022-07-31T15:37:49.646Z,2.17
2022-07-31T15:40:14.131Z,1.80
2022-07-31T15:42:38.461Z,2.03
2022-07-31T15:45:00.420Z,1.98
2022-07-31T15:47:21.950Z,1.70
2022-07-31T15:49:44.347Z,1.80
2022-07-31T15:52:06.220Z,1.90
2022-07-31T15:54:40.658Z,1.85
2022-07-31T15:57:02.339Z,2.03
2022-07-31T15:59:24.955Z,1.90
2022-07-31T16:01:46.424Z,2.03
2022-07-31T16:04:16.664Z,1.70
2022-07-31T16:06:38.520Z,2.03
2022-07-31T16:09:01.691Z,1.83
2022-07-31T16:11:23.264Z,1.75
2022-07-31T16:13:44.775Z,1.83
2022-07-31T16:16:06.569Z,1.85
2022-07-31T16:18:28.088Z,2.08
2022-07-31T16:20:49.968Z,1.80
2022-07-31T16:23:11.533Z,1.90
2022-07-31T16:25:34.611Z,1.77
2022-07-31T16:27:56.798Z,1.88
2022-07-31T16:30:18.519Z,2.25
2022-07-31T16:32:40.111Z,1.95
2022-07-31T16:35:01.894Z,1.92
2022-07-31T16:37:50.487Z,2.10
2022-07-31T16:40:07.329Z,2.20
2022-07-31T16:42:29.529Z,2.08
2022-07-31T16:44:54.387Z,1.98
2022-07-31T16:47:16.127Z,1.85
2022-07-31T16:49:57.626Z,1.80
2022-07-31T16:52:19.470Z,1.88
2022-07-31T16:54:41.742Z,1.95
2022-07-31T16:57:03.653Z,2.00
2022-07-31T16:59:25.448Z,1.88
2022-07-31T17:01:58.616Z,2.05
2022-07-31T17:04:21.795Z,2.35
2022-07-31T17:06:43.691Z,2.00
2022-07-31T17:09:17.172Z,2.10
2022-07-31T17:11:39.795Z,1.75
2022-07-31T17:14:02.642Z,2.20
2022-07-31T17:16:24.151Z,2.35
2022-07-31T17:18:52.552Z,2.10
2022-07-31T17:21:16.170Z,1.92
2022-07-31T17:23:43.866Z,1.92
2022-07-31T17:26:06.165Z,2.38
2022-07-31T17:28:27.638Z,2.00
2022-07-31T17:30:49.230Z,1.70
2022-07-31T17:33:12.197Z,2.17
2022-07-31T17:35:34.351Z,2.10
2022-07-31T17:37:55.839Z,2.05
2022-07-31T17:40:41.876Z,2.30
2022-07-31T17:42:58.758Z,2.47
2022-07-31T17:45:22.019Z,2.17
2022-07-31T17:47:43.717Z,2.17
2022-07-31T17:50:05.508Z,2.42
2022-07-31T17:52:26.981Z,2.03
2022-07-31T17:54:48.755Z,2.20
2022-07-31T17:57:10.374Z,2.45
2022-07-31T17:59:32.155Z,2.17
2022-07-31T18:01:59.671Z,2.28
2022-07-31T18:04:21.475Z,2.35
2022-07-31T18:06:43.320Z,2.35
2022-07-31T18:09:04.920Z,2.30
2022-07-31T18:11:26.611Z,2.00
2022-07-31T18:13:51.721Z,2.55
2022-07-31T18:16:18.662Z,2.28
2022-07-31T18:18:40.140Z,2.08
2022-07-31T18:21:01.951Z,2.60
2022-07-31T18:23:29.299Z,2.35
2022-07-31T18:25:53.651Z,2.15
2022-07-31T18:28:15.095Z,2.45
2022-07-31T18:30:41.071Z,2.33
2022-07-31T18:33:02.650Z,2.47
2022-07-31T18:35:24.139Z,2.30
2022-07-31T18:37:45.658Z,2.40
2022-07-31T18:40:07.947Z,2.20
2022-07-31T18:42:29.536Z,2.20
2022-07-31T18:44:51.368Z,2.15
2022-07-31T18:47:12.899Z,2.35
2022-07-31T18:51:00.227Z,2.35
2022-07-31T18:52:15.868Z,2.10
2022-07-31T18:54:37.865Z,2.33
2022-07-31T18:56:59.882Z,2.30
2022-07-31T18:59:21.528Z,2.28
2022-07-31T19:01:43.050Z,2.50
2022-07-31T19:04:05.790Z,2.45
2022-07-31T19:06:27.372Z,2.20
2022-07-31T19:08:51.887Z,2.60
2022-07-31T19:11:13.435Z,2.63
2022-07-31T19:13:35.091Z,2.85
2022-07-31T19:15:56.575Z,2.72
2022-07-31T19:18:21.777Z,2.30
2022-07-31T19:20:58.893Z,2.70
2022-07-31T19:23:29.524Z,2.72
2022-07-31T19:26:02.356Z,2.60
2022-07-31T19:28:27.319Z,2.42
2022-07-31T19:30:48.975Z,2.70
2022-07-31T19:33:10.439Z,2.45
2022-07-31T19:35:32.084Z,2.38
2022-07-31T19:37:58.746Z,2.67
2022-07-31T19:40:20.256Z,2.80
2022-07-31T19:42:41.707Z,2.58
2022-07-31T19:45:04.020Z,2.38
2022-07-31T19:47:25.503Z,2.80
2022-07-31T19:49:47.326Z,2.38
2022-07-31T19:52:08.825Z,2.67
2022-07-31T19:54:30.286Z,2.55
2022-07-31T19:56:51.756Z,2.63
2022-07-31T19:59:13.288Z,2.92
2022-07-31T20:01:34.854Z,2.50
2022-07-31T20:03:57.719Z,2.63
2022-07-31T20:06:19.334Z,2.90
2022-07-31T20:08:40.818Z,2.65
2022-07-31T20:11:04.428Z,2.72
2022-07-31T20:13:27.876Z,2.65
2022-07-31T20:15:52.016Z,2.45
2022-07-31T20:18:26.913Z,2.50
2022-07-31T20:20:49.703Z,2.50
2022-07-31T20:23:11.152Z,2.67
2022-07-31T20:25:32.762Z,2.38
2022-07-31T20:27:54.269Z,2.60
2022-07-31T20:30:15.910Z,3.17
2022-07-31T20:32:38.126Z,2.70
2022-07-31T20:35:29.090Z,2.90
2022-07-31T20:37:55.567Z,2.90
2022-07-31T20:40:17.057Z,2.35
2022-07-31T20:42:38.776Z,2.67
2022-07-31T20:45:00.277Z,2.90
2022-07-31T20:47:24.637Z,2.80
2022-07-31T20:49:46.323Z,2.78
2022-07-31T20:52:08.187Z,3.55
2022-07-31T20:54:34.173Z,3.00
2022-07-31T20:56:56.492Z,2.80
2022-07-31T20:59:17.994Z,3.15
2022-07-31T21:01:39.503Z,2.65
2022-07-31T21:04:01.770Z,3.10
2022-07-31T21:06:24.790Z,3.33
2022-07-31T21:08:46.800Z,3.10
2022-07-31T21:11:08.585Z,3.45
2022-07-31T21:13:30.559Z,3.08
2022-07-31T21:15:52.718Z,2.78
2022-07-31T21:18:16.194Z,2.90
2022-07-31T21:20:51.007Z,3.10
2022-07-31T21:23:15.231Z,3.03
2022-07-31T21:25:37.291Z,3.08
2022-07-31T21:27:59.099Z,3.17
2022-07-31T21:30:20.683Z,3.15
2022-07-31T21:32:42.226Z,3.00
2022-07-31T21:35:04.809Z,3.22
2022-07-31T21:37:27.601Z,2.95
2022-07-31T21:40:00.860Z,2.88
2022-07-31T21:42:22.688Z,3.08
2022-07-31T21:44:46.278Z,2.95
2022-07-31T21:47:13.878Z,2.95
2022-07-31T21:49:38.145Z,2.80
2022-07-31T21:52:01.177Z,3.50
2022-07-31T21:54:22.658Z,2.90
2022-07-31T21:56:44.149Z,2.75
2022-07-31T21:59:05.609Z,2.90
2022-07-31T22:01:27.107Z,3.13
2022-07-31T22:03:48.602Z,3.30
2022-07-31T22:06:28.666Z,3.35
2022-07-31T22:08:50.183Z,3.28
2022-07-31T22:11:11.820Z,3.03
2022-07-31T22:13:33.414Z,3.25
2022-07-31T22:16:00.159Z,3.00
2022-07-31T22:18:22.688Z,3.60
2022-07-31T22:20:47.794Z,3.30
2022-07-31T22:23:11.064Z,3.47
2022-07-31T22:25:32.810Z,3.20
2022-07-31T22:27:56.008Z,3.30
2022-07-31T22:30:17.971Z,3.40
2022-07-31T22:32:42.824Z,3.17
2022-07-31T22:35:05.475Z,3.50
2022-07-31T22:37:28.396Z,3.20
2022-07-31T22:39:50.801Z,3.00
2022-07-31T22:42:12.401Z,2.80
2022-07-31T22:44:33.940Z,3.30
2022-07-31T22:46:56.397Z,3.20
2022-07-31T22:49:19.055Z,3.47
2022-07-31T22:51:44.838Z,3.30
2022-07-31T22:54:07.974Z,3.03
2022-07-31T22:56:29.432Z,2.83
2022-07-31T22:58:50.886Z,2.95
2022-07-31T23:01:12.392Z,3.45
2022-07-31T23:03:33.900Z,3.22
2022-07-31T23:06:02.626Z,3.40
2022-07-31T23:08:36.870Z,3.45
2022-07-31T23:10:58.329Z,3.60
2022-07-31T23:13:19.838Z,3.70
2022-07-31T23:15:41.288Z,3.30
2022-07-31T23:18:02.814Z,3.75
2022-07-31T23:20:24.266Z,3.30
2022-07-31T23:22:46.441Z,3.00
2022-07-31T23:25:12.853Z,3.60
2022-07-31T23:27:34.707Z,3.35
2022-07-31T23:29:56.253Z,3.03
2022-07-31T23:32:17.765Z,3.30
2022-07-31T23:34:39.523Z,3.47
2022-07-31T23:37:01.885Z,3.53
2022-07-31T23:39:23.325Z,3.30
2022-07-31T23:42:03.896Z,3.30
2022-07-31T23:44:25.897Z,2.83
2022-07-31T23:46:47.319Z,3.20
2022-07-31T23:49:10.954Z,2.90
2022-07-31T23:51:32.467Z,2.95
2022-07-31T23:53:53.972Z,3.00
2022-07-31T23:56:18.488Z,3.08
2022-07-31T23:58:41.266Z,2.95
